Milford, Missouri
Current Conditions -  °F | °C
As of 2:55 AM on Wednesday 28 Jan 2015 (Local Time) from KPTS Reporting Station
Clear Clear  
Wind Chill: 42°   Ceiling: Unl
Heat Index: 45°   Visibility: 10mi
Dew Point: 32°   Wind: 6mph
Humidity: 60%   Direction: 160°SSE
Pressure: 30.02"   Gusts: NA
Location:  37.58°N, 94.16°W
Report Text: KPTS 280855Z AUTO 16005KT 10SM CLR 07/00 A3002 RMK AO2 T00711002
Loading
Personal Weather Stations






























Interactive Weather Map New forecast layout! Learn more

10-Day Weather Forecast

Advertisements
Track Severe Weather on mobile